createdAt,value
2022-12-01T00:01:12.044Z,100056.44
2022-12-01T00:03:39.360Z,100061.50
2022-12-01T00:06:14.578Z,100062.09
2022-12-01T00:08:42.498Z,100061.84
2022-12-01T00:11:11.692Z,100055.75
2022-12-01T00:13:38.580Z,100060.19
2022-12-01T00:16:16.472Z,100055.31
2022-12-01T00:18:43.563Z,100052.91
2022-12-01T00:21:17.972Z,100051.69
2022-12-01T00:23:50.857Z,100052.25
2022-12-01T00:26:20.404Z,100051.22
2022-12-01T00:28:52.213Z,100043.53
2022-12-01T00:31:19.987Z,100047.72
2022-12-01T00:33:46.836Z,100049.53
2022-12-01T00:36:14.346Z,100050.56
2022-12-01T00:38:41.555Z,100050.56
2022-12-01T00:41:09.058Z,100050.09
2022-12-01T00:43:36.048Z,100047.38
2022-12-01T00:46:03.207Z,100049.78
2022-12-01T00:48:30.100Z,100058.03
2022-12-01T00:50:57.047Z,100042.97
2022-12-01T00:53:24.265Z,100048.09
2022-12-01T00:55:51.255Z,100048.47
2022-12-01T00:58:18.005Z,100048.00
2022-12-01T01:00:45.017Z,100040.97
2022-12-01T01:03:11.975Z,100035.53
2022-12-01T01:05:40.605Z,100049.25
2022-12-01T01:08:12.188Z,100048.22
2022-12-01T01:10:42.297Z,100049.59
2022-12-01T01:13:09.585Z,100056.59
2022-12-01T01:15:36.767Z,100044.50
2022-12-01T01:18:04.080Z,100044.50
2022-12-01T01:20:31.641Z,100044.75
2022-12-01T01:22:59.037Z,100049.13
2022-12-01T01:25:25.979Z,100043.03
2022-12-01T01:27:52.792Z,100043.13
2022-12-01T01:30:20.248Z,100042.34
2022-12-01T01:32:47.437Z,100052.31
2022-12-01T01:35:14.251Z,100042.34
2022-12-01T01:37:41.017Z,100047.22
2022-12-01T01:40:08.430Z,100045.97
2022-12-01T01:42:35.146Z,100046.75
2022-12-01T01:45:01.969Z,100045.19
2022-12-01T01:47:40.783Z,100046.69
2022-12-01T01:50:11.329Z,100044.53
2022-12-01T01:52:55.033Z,100040.94
2022-12-01T01:55:21.860Z,100039.13
2022-12-01T01:57:48.761Z,100036.41
2022-12-01T02:00:18.849Z,100044.19
2022-12-01T02:02:47.433Z,100044.97
2022-12-01T02:05:32.118Z,100052.44
2022-12-01T02:08:00.335Z,100047.38
2022-12-01T02:11:04.890Z,100044.19
2022-12-01T02:13:43.470Z,100052.31
2022-12-01T02:16:28.385Z,100049.72
2022-12-01T02:19:17.002Z,100052.13
2022-12-01T02:22:03.019Z,100061.59
2022-12-01T02:24:49.101Z,100060.28
2022-12-01T02:27:30.984Z,100050.66
2022-12-01T02:30:03.953Z,100050.22
2022-12-01T02:32:44.175Z,100054.38
2022-12-01T02:35:29.952Z,100052.00
2022-12-01T02:38:18.137Z,100055.72
2022-12-01T02:40:56.226Z,100055.19
2022-12-01T02:43:29.574Z,100050.88
2022-12-01T02:46:37.793Z,100051.78
2022-12-01T02:49:10.444Z,100051.34
2022-12-01T02:51:40.184Z,100047.03
2022-12-01T02:54:08.636Z,100053.84
2022-12-01T02:56:35.426Z,100044.78
2022-12-01T02:59:02.273Z,100048.84
2022-12-01T03:01:35.098Z,100054.81
2022-12-01T03:04:07.846Z,100045.47
2022-12-01T03:06:43.518Z,100039.47
2022-12-01T03:09:18.058Z,100049.19
2022-12-01T03:12:30.017Z,100041.50
2022-12-01T03:15:11.598Z,100036.78
2022-12-01T03:18:01.268Z,100037.88
2022-12-01T03:20:42.806Z,100034.50
2022-12-01T03:23:16.038Z,100032.94
2022-12-01T03:25:47.997Z,100037.09
2022-12-01T03:28:21.546Z,100028.53
2022-12-01T03:30:52.560Z,100035.75
2022-12-01T03:33:27.280Z,100026.59
2022-12-01T03:36:02.081Z,100033.28
2022-12-01T03:38:30.637Z,100036.53
2022-12-01T03:41:01.723Z,100036.63
2022-12-01T03:43:34.671Z,100035.72
2022-12-01T03:46:22.412Z,100039.44
2022-12-01T03:48:50.476Z,100038.19
2022-12-01T03:51:38.653Z,100041.22
2022-12-01T03:54:16.530Z,100037.97
2022-12-01T03:56:49.890Z,100036.16
2022-12-01T03:59:21.018Z,100038.19
2022-12-01T04:01:48.304Z,100036.25
2022-12-01T04:04:15.336Z,100031.28
2022-12-01T04:06:46.173Z,100035.13
2022-12-01T04:09:13.514Z,100039.97
2022-12-01T04:11:40.513Z,100036.59
2022-12-01T04:14:07.222Z,100035.38
2022-12-01T04:16:34.110Z,100036.03
2022-12-01T04:19:00.907Z,100033.66
2022-12-01T04:21:27.717Z,100042.31
2022-12-01T04:23:54.446Z,100040.75
2022-12-01T04:26:21.266Z,100047.88
2022-12-01T04:28:48.363Z,100047.66
2022-12-01T04:31:15.414Z,100033.44
2022-12-01T04:33:42.297Z,100035.59
2022-12-01T04:36:09.619Z,100040.66
2022-12-01T04:38:36.528Z,100037.28
2022-12-01T04:41:14.457Z,100033.22
2022-12-01T04:43:42.014Z,100032.19
2022-12-01T04:46:09.506Z,100026.66
2022-12-01T04:48:39.997Z,100040.88
2022-12-01T04:51:08.412Z,100040.53
2022-12-01T04:53:36.578Z,100037.28
2022-12-01T04:56:04.186Z,100036.81
2022-12-01T04:58:32.889Z,100050.03
2022-12-01T05:01:04.790Z,100055.44
2022-12-01T05:03:31.670Z,100052.50
2022-12-01T05:06:07.326Z,100063.69
2022-12-01T05:08:34.280Z,100055.75
2022-12-01T05:11:01.998Z,100052.16
2022-12-01T05:13:28.879Z,100057.69
2022-12-01T05:16:05.451Z,100052.50
2022-12-01T05:18:32.369Z,100051.13
2022-12-01T05:20:59.330Z,100054.16
2022-12-01T05:23:28.190Z,100047.41
2022-12-01T05:25:55.542Z,100055.31
2022-12-01T05:28:24.062Z,100066.34
2022-12-01T05:30:51.592Z,100066.47
2022-12-01T05:33:18.521Z,100072.09
2022-12-01T05:35:45.365Z,100079.25
2022-12-01T05:38:12.144Z,100082.06
2022-12-01T05:40:38.911Z,100081.16
2022-12-01T05:43:06.762Z,100081.78
2022-12-01T05:45:35.367Z,100081.16
2022-12-01T05:48:03.018Z,100084.88
2022-12-01T05:50:30.934Z,100085.22
2022-12-01T05:52:57.992Z,100082.28
2022-12-01T05:55:24.824Z,100077.28
2022-12-01T05:57:51.658Z,100082.06
2022-12-01T06:00:18.917Z,100077.66
2022-12-01T06:02:45.795Z,100083.31
2022-12-01T06:05:12.815Z,100082.13
2022-12-01T06:07:39.563Z,100091.72
2022-12-01T06:10:07.446Z,100088.34
2022-12-01T06:12:34.244Z,100087.22
2022-12-01T06:15:01.077Z,100091.25
2022-12-01T06:17:28.075Z,100095.22
2022-12-01T06:19:55.237Z,100085.63
2022-12-01T06:22:22.001Z,100076.94
2022-12-01T06:24:48.794Z,100078.56
2022-12-01T06:27:15.565Z,100080.72
2022-12-01T06:29:42.555Z,100076.31
2022-12-01T06:32:09.624Z,100081.69
2022-12-01T06:34:36.431Z,100086.00
2022-12-01T06:37:03.266Z,100091.66
2022-12-01T06:39:30.088Z,100092.09
2022-12-01T06:41:56.870Z,100085.44
2022-12-01T06:44:23.696Z,100088.63
2022-12-01T06:46:50.463Z,100084.44
2022-12-01T06:49:17.231Z,100080.25
2022-12-01T06:51:44.890Z,100081.84
2022-12-01T06:54:12.400Z,100082.06
2022-12-01T06:56:39.282Z,100084.53
2022-12-01T06:59:06.522Z,100092.75
2022-12-01T07:01:33.573Z,100088.34
2022-12-01T07:04:00.543Z,100083.75
2022-12-01T07:06:30.284Z,100082.13
2022-12-01T07:08:57.107Z,100088.94
2022-12-01T07:11:23.930Z,100083.75
2022-12-01T07:13:55.929Z,100085.56
2022-12-01T07:16:23.286Z,100086.34
2022-12-01T07:18:50.642Z,100084.53
2022-12-01T07:21:17.515Z,100089.91
2022-12-01T07:23:44.394Z,100093.34
2022-12-01T07:26:14.441Z,100090.06
2022-12-01T07:28:41.619Z,100093.22
2022-12-01T07:31:16.771Z,100104.06
2022-12-01T07:33:43.904Z,100104.84
2022-12-01T07:36:12.116Z,100113.97
2022-12-01T07:38:40.259Z,100120.78
2022-12-01T07:41:13.257Z,100122.78
2022-12-01T07:43:40.799Z,100130.03
2022-12-01T07:46:23.727Z,100137.56
2022-12-01T07:48:52.533Z,100134.75
2022-12-01T07:51:21.121Z,100129.66
2022-12-01T07:53:50.656Z,100130.66
2022-12-01T07:56:19.219Z,100136.44
2022-12-01T07:58:46.175Z,100136.44
2022-12-01T08:01:18.526Z,100141.31
2022-12-01T08:03:45.364Z,100150.25
2022-12-01T08:06:12.262Z,100147.44
2022-12-01T08:08:40.621Z,100149.81
2022-12-01T08:11:12.280Z,100150.16
2022-12-01T08:13:40.126Z,100150.75
2022-12-01T08:16:10.484Z,100146.53
2022-12-01T08:18:38.981Z,100147.22
2022-12-01T08:21:07.778Z,100156.81
2022-12-01T08:23:34.767Z,100152.06
2022-12-01T08:26:07.952Z,100149.59
2022-12-01T08:28:40.476Z,100145.31
2022-12-01T08:31:31.955Z,100145.91
2022-12-01T08:33:59.511Z,100144.28
2022-12-01T08:36:26.352Z,100141.41
2022-12-01T08:38:54.991Z,100145.16
2022-12-01T08:41:23.471Z,100147.50
2022-12-01T08:43:57.788Z,100154.31
2022-12-01T08:46:29.549Z,100144.25
2022-12-01T08:48:56.417Z,100146.28
2022-12-01T08:51:24.051Z,100147.31
2022-12-01T08:53:51.478Z,100150.69
2022-12-01T08:56:23.273Z,100153.47
2022-12-01T08:58:50.234Z,100147.84
2022-12-01T09:01:18.388Z,100137.69
2022-12-01T09:03:46.149Z,100129.69
2022-12-01T09:06:19.155Z,100135.22
2022-12-01T09:08:46.280Z,100151.72
2022-12-01T09:11:15.698Z,100151.72
2022-12-01T09:13:43.855Z,100146.78
2022-12-01T09:16:14.185Z,100145.31
2022-12-01T09:18:41.677Z,100140.13
2022-12-01T09:21:20.909Z,100139.31
2022-12-01T09:23:48.427Z,100137.06
2022-12-01T09:26:16.429Z,100140.00
2022-12-01T09:28:43.183Z,100139.34
2022-12-01T09:31:12.146Z,100130.75
2022-12-01T09:33:39.293Z,100124.53
2022-12-01T09:36:08.336Z,100114.38
2022-12-01T09:38:36.975Z,100124.53
2022-12-01T09:41:23.155Z,100121.59
2022-12-01T09:44:00.716Z,100121.84
2022-12-01T09:46:32.778Z,100115.41
2022-12-01T09:49:02.694Z,100113.16
2022-12-01T09:51:30.182Z,100114.28
2022-12-01T09:53:59.890Z,100114.84
2022-12-01T09:56:39.755Z,100114.03
2022-12-01T09:59:13.575Z,100110.22
2022-12-01T10:01:44.539Z,100112.38
2022-12-01T10:04:16.805Z,100108.75
2022-12-01T10:06:54.360Z,100102.84
2022-12-01T10:09:28.357Z,100104.44
2022-12-01T10:12:05.982Z,100103.44
2022-12-01T10:14:35.834Z,100097.56
2022-12-01T10:17:23.594Z,100101.72
2022-12-01T10:20:17.212Z,100090.31
2022-12-01T10:23:05.283Z,100091.47
2022-12-01T10:25:39.097Z,100094.84
2022-12-01T10:28:23.825Z,100084.34
2022-12-01T10:30:53.393Z,100080.91
2022-12-01T10:33:24.935Z,100079.22
2022-12-01T10:35:51.807Z,100082.41
2022-12-01T10:38:35.467Z,100085.34
2022-12-01T10:41:05.587Z,100076.53
2022-12-01T10:43:44.279Z,100079.44
2022-12-01T10:46:23.628Z,100074.78
2022-12-01T10:48:58.708Z,100078.22
2022-12-01T10:51:27.437Z,100072.19
2022-12-01T10:54:08.089Z,100080.34
2022-12-01T10:56:39.609Z,100076.50
2022-12-01T10:59:22.858Z,100069.47
2022-12-01T11:01:49.908Z,100069.03
2022-12-01T11:04:34.563Z,100060.44
2022-12-01T11:07:02.225Z,100065.19
2022-12-01T11:09:30.682Z,100069.13
2022-12-01T11:12:02.831Z,100059.72
2022-12-01T11:14:51.181Z,100052.50
2022-12-01T11:17:39.215Z,100062.00
2022-12-01T11:20:26.330Z,100063.91
2022-12-01T11:23:13.571Z,100058.25
2022-12-01T11:25:40.372Z,100057.13
2022-12-01T11:28:07.444Z,100066.72
2022-12-01T11:30:34.367Z,100060.06
2022-12-01T11:33:04.755Z,100061.16
2022-12-01T11:35:35.101Z,100060.59
2022-12-01T11:38:28.871Z,100059.34
2022-12-01T11:41:00.582Z,100043.50
2022-12-01T11:43:34.480Z,100050.84
2022-12-01T11:46:05.495Z,100048.56
2022-12-01T11:48:34.409Z,100049.22
2022-12-01T11:51:09.439Z,100053.75
2022-12-01T11:53:41.680Z,100046.47
2022-12-01T11:56:22.636Z,100050.75
2022-12-01T11:59:01.361Z,100052.91
2022-12-01T12:01:50.688Z,100046.91
2022-12-01T12:04:35.524Z,100046.91
2022-12-01T12:07:24.506Z,100045.31
2022-12-01T12:09:59.744Z,100047.84
2022-12-01T12:12:38.345Z,100044.53
2022-12-01T12:15:23.124Z,100037.75
2022-12-01T12:17:55.824Z,100040.88
2022-12-01T12:20:37.773Z,100040.88
2022-12-01T12:23:26.315Z,100035.69
2022-12-01T12:26:08.099Z,100034.69
2022-12-01T12:28:52.706Z,100037.50
2022-12-01T12:31:35.223Z,100035.69
2022-12-01T12:34:39.019Z,100031.50
2022-12-01T12:37:13.205Z,100032.09
2022-12-01T12:40:09.497Z,100033.66
2022-12-01T12:42:55.432Z,100029.81
2022-12-01T12:45:32.421Z,100027.41
2022-12-01T12:48:23.378Z,100022.78
2022-12-01T12:51:17.374Z,100027.97
2022-12-01T12:53:57.920Z,100025.91
2022-12-01T12:56:27.772Z,100026.72
2022-12-01T12:58:59.485Z,100030.13
2022-12-01T13:01:34.582Z,100029.88
2022-12-01T13:04:09.397Z,100025.13
2022-12-01T13:06:51.896Z,100026.50
2022-12-01T13:09:38.186Z,100027.97
2022-12-01T13:12:13.478Z,100025.91
2022-12-01T13:14:46.154Z,100032.94
2022-12-01T13:17:32.171Z,100027.75
2022-12-01T13:19:59.076Z,100025.84
2022-12-01T13:22:32.972Z,100031.63
2022-12-01T13:25:00.247Z,100028.91
2022-12-01T13:27:31.684Z,100024.28
2022-12-01T13:30:00.115Z,100027.97
2022-12-01T13:32:40.052Z,100019.13
2022-12-01T13:35:37.427Z,100027.75
2022-12-01T13:38:36.852Z,100032.81
2022-12-01T13:41:35.178Z,100022.84
2022-12-01T13:44:21.790Z,100020.50
2022-12-01T13:46:48.576Z,100032.25
2022-12-01T13:49:37.143Z,100031.13
2022-12-01T13:52:22.245Z,100028.78
2022-12-01T13:55:07.103Z,100028.53
2022-12-01T13:57:39.582Z,100023.81
2022-12-01T14:00:06.493Z,100024.34
2022-12-01T14:02:39.326Z,100023.09
2022-12-01T14:05:24.587Z,100028.78
2022-12-01T14:07:54.900Z,100023.81
2022-12-01T14:10:31.679Z,100022.78
2022-12-01T14:13:04.280Z,100018.59
2022-12-01T14:15:31.035Z,100023.25
2022-12-01T14:18:04.885Z,100022.47
2022-12-01T14:20:35.819Z,100021.88
2022-12-01T14:23:14.481Z,100016.69
2022-12-01T14:25:42.557Z,100020.06
2022-12-01T14:28:17.408Z,100023.69
2022-12-01T14:30:44.909Z,100020.63
2022-12-01T14:33:54.410Z,100025.28
2022-12-01T14:36:23.952Z,100028.59
2022-12-01T14:38:59.973Z,100029.38
2022-12-01T14:41:38.215Z,100033.47
2022-12-01T14:44:33.286Z,100023.31
2022-12-01T14:47:00.204Z,100026.69
2022-12-01T14:49:49.459Z,100022.75
2022-12-01T14:52:28.341Z,100026.38
2022-12-01T14:55:00.813Z,100016.19
2022-12-01T14:57:33.024Z,100020.59
2022-12-01T15:00:12.323Z,100028.97
2022-12-01T15:02:51.534Z,100026.84
2022-12-01T15:05:21.168Z,100037.00
2022-12-01T15:07:50.918Z,100029.19
2022-12-01T15:10:25.826Z,100029.44
2022-12-01T15:12:54.043Z,100035.66
2022-12-01T15:15:26.342Z,100031.72
2022-12-01T15:17:54.863Z,100037.69
2022-12-01T15:20:37.454Z,100040.22
2022-12-01T15:23:15.847Z,100038.88
2022-12-01T15:25:45.587Z,100037.06
2022-12-01T15:28:18.218Z,100037.28
2022-12-01T15:30:48.579Z,100039.44
2022-12-01T15:33:36.776Z,100038.28
2022-12-01T15:36:05.390Z,100030.81
2022-12-01T15:38:35.800Z,100039.44
2022-12-01T15:43:57.380Z,100036.25
2022-12-01T15:46:32.501Z,100033.09
2022-12-01T15:49:21.456Z,100036.72
2022-12-01T15:51:50.559Z,100027.09
2022-12-01T15:54:26.771Z,100036.72
2022-12-01T15:56:55.841Z,100042.72
2022-12-01T15:59:44.533Z,100040.91
2022-12-01T16:02:20.754Z,100039.31
2022-12-01T16:04:49.611Z,100037.19
2022-12-01T16:07:16.695Z,100043.09
2022-12-01T16:09:58.933Z,100042.50
2022-12-01T16:12:28.124Z,100040.69
2022-12-01T16:15:00.997Z,100040.84
2022-12-01T16:17:42.030Z,100045.03
2022-12-01T16:20:22.427Z,100049.13
2022-12-01T16:22:54.187Z,100049.56
2022-12-01T16:25:30.512Z,100050.38
2022-12-01T16:27:58.523Z,100043.00
2022-12-01T16:30:34.250Z,100046.66
2022-12-01T16:33:13.923Z,100045.28
2022-12-01T16:35:41.316Z,100040.09
2022-12-01T16:38:17.875Z,100048.00
2022-12-01T16:40:48.094Z,100045.41
2022-12-01T16:43:20.447Z,100051.94
2022-12-01T16:45:48.939Z,100052.72
2022-12-01T16:48:16.579Z,100043.34
2022-12-01T16:50:45.967Z,100049.56
2022-12-01T16:53:13.674Z,100052.63
2022-12-01T16:55:51.572Z,100046.75
2022-12-01T16:58:19.171Z,100053.91
2022-12-01T17:00:46.307Z,100039.34
2022-12-01T17:03:17.243Z,100040.22
2022-12-01T17:05:44.132Z,100049.72
2022-12-01T17:08:11.667Z,100048.06
2022-12-01T17:10:43.229Z,100038.66
2022-12-01T17:13:10.771Z,100047.16
2022-12-01T17:15:44.224Z,100049.66
2022-12-01T17:18:11.600Z,100043.09
2022-12-01T17:20:39.100Z,100048.41
2022-12-01T17:23:06.561Z,100055.84
2022-12-01T17:25:34.141Z,100044.91
2022-12-01T17:28:01.390Z,100054.28
2022-12-01T17:30:28.178Z,100048.28
2022-12-01T17:32:58.021Z,100057.56
2022-12-01T17:35:28.465Z,100065.91
2022-12-01T17:37:55.395Z,100065.03
2022-12-01T17:40:23.188Z,100060.03
2022-12-01T17:42:50.861Z,100066.25
2022-12-01T17:45:19.413Z,100060.47
2022-12-01T17:47:46.830Z,100055.97
2022-12-01T17:50:13.709Z,100065.78
2022-12-01T17:52:40.825Z,100067.38
2022-12-01T17:55:08.132Z,100066.47
2022-12-01T17:57:35.705Z,100061.94
2022-12-01T18:00:02.907Z,100062.38
2022-12-01T18:02:35.686Z,100058.75
2022-12-01T18:05:03.113Z,100059.22
2022-12-01T18:07:30.606Z,100057.63
2022-12-01T18:09:57.987Z,100048.47
2022-12-01T18:12:25.303Z,100059.09
2022-12-01T18:14:52.566Z,100064.50
2022-12-01T18:17:20.276Z,100059.53
2022-12-01T18:19:47.495Z,100060.91
2022-12-01T18:22:14.865Z,100054.34
2022-12-01T18:24:41.967Z,100064.72
2022-12-01T18:27:10.803Z,100066.53
2022-12-01T18:29:37.817Z,100065.75
2022-12-01T18:32:05.521Z,100059.97
2022-12-01T18:34:33.085Z,100057.38
2022-12-01T18:37:03.592Z,100065.63
2022-12-01T18:39:31.090Z,100071.38
2022-12-01T18:41:59.009Z,100067.22
2022-12-01T18:44:27.017Z,100073.41
2022-12-01T18:46:54.696Z,100073.41
2022-12-01T18:49:23.299Z,100072.63
2022-12-01T18:51:50.648Z,100067.44
2022-12-01T18:54:18.605Z,100074.44
2022-12-01T18:56:51.043Z,100068.22
2022-12-01T18:59:19.740Z,100068.44
2022-12-01T19:01:49.686Z,100071.84
2022-12-01T19:04:19.025Z,100066.88
2022-12-01T19:06:47.382Z,100069.69
2022-12-01T19:09:16.052Z,100051.50
2022-12-01T19:11:44.364Z,100054.88
2022-12-01T19:14:19.942Z,100055.69
2022-12-01T19:16:48.592Z,100063.25
2022-12-01T19:19:16.063Z,100053.63
2022-12-01T19:21:43.754Z,100060.63
2022-12-01T19:24:11.332Z,100070.47
2022-12-01T19:26:40.463Z,100063.69
2022-12-01T19:29:09.687Z,100071.13
2022-12-01T19:31:37.857Z,100068.78
2022-12-01T19:34:06.971Z,100066.63
2022-12-01T19:36:35.534Z,100064.47
2022-12-01T19:39:05.990Z,100065.00
2022-12-01T19:41:39.275Z,100066.28
2022-12-01T19:44:07.098Z,100063.25
2022-12-01T19:46:35.434Z,100069.41
2022-12-01T19:49:03.516Z,100075.06
2022-12-01T19:51:34.788Z,100065.69
2022-12-01T19:54:07.000Z,100069.41
2022-12-01T19:56:35.431Z,100069.66
2022-12-01T19:59:04.252Z,100071.31
2022-12-01T20:01:31.930Z,100069.66
2022-12-01T20:03:59.290Z,100072.91
2022-12-01T20:06:31.579Z,100071.13
2022-12-01T20:09:01.896Z,100072.09
2022-12-01T20:11:30.473Z,100069.31
2022-12-01T20:13:58.518Z,100072.34
2022-12-01T20:16:28.163Z,100073.78
2022-12-01T20:18:58.204Z,100063.28
2022-12-01T20:21:28.320Z,100068.09
2022-12-01T20:24:02.121Z,100064.16
2022-12-01T20:26:35.684Z,100069.00
2022-12-01T20:29:09.690Z,100067.50
2022-12-01T20:31:39.044Z,100067.06
2022-12-01T20:34:11.126Z,100070.13
2022-12-01T20:36:40.341Z,100061.31
2022-12-01T20:39:12.853Z,100057.69
2022-12-01T20:41:42.173Z,100056.56
2022-12-01T20:44:12.386Z,100060.16
2022-12-01T20:46:42.180Z,100058.13
2022-12-01T20:49:10.588Z,100063.56
2022-12-01T20:51:39.592Z,100063.75
2022-12-01T20:54:27.812Z,100066.94
2022-12-01T20:57:00.607Z,100068.84
2022-12-01T20:59:28.527Z,100064.09
2022-12-01T21:01:55.823Z,100067.63
2022-12-01T21:04:24.553Z,100073.25
2022-12-01T21:06:56.787Z,100071.69
2022-12-01T21:09:26.944Z,100066.94
2022-12-01T21:11:56.736Z,100066.34
2022-12-01T21:14:44.775Z,100075.56
2022-12-01T21:17:44.016Z,100077.81
2022-12-01T21:20:22.778Z,100080.56
2022-12-01T21:22:51.755Z,100076.53
2022-12-01T21:25:22.560Z,100076.09
2022-12-01T21:27:50.059Z,100071.09
2022-12-01T21:30:20.377Z,100065.13
2022-12-01T21:32:48.961Z,100064.34
2022-12-01T21:35:25.143Z,100067.16
2022-12-01T21:38:00.289Z,100063.56
2022-12-01T21:40:27.679Z,100064.09
2022-12-01T21:42:56.348Z,100069.53
2022-12-01T21:45:29.543Z,100072.91
2022-12-01T21:48:18.559Z,100072.91
2022-12-01T21:50:50.836Z,100070.53
2022-12-01T21:53:21.442Z,100069.75
2022-12-01T21:55:48.495Z,100064.22
2022-12-01T21:58:27.164Z,100064.78
2022-12-01T22:00:56.197Z,100068.22
2022-12-01T22:03:37.164Z,100071.66
2022-12-01T22:09:10.702Z,100078.72
2022-12-01T22:11:37.474Z,100063.22
2022-12-01T22:14:13.578Z,100068.41
2022-12-01T22:16:44.151Z,100064.44
2022-12-01T22:19:16.726Z,100065.91
2022-12-01T22:21:48.456Z,100061.50
2022-12-01T22:24:27.100Z,100061.72
2022-12-01T22:27:09.578Z,100063.66
2022-12-01T22:29:41.781Z,100057.03
2022-12-01T22:32:14.546Z,100057.97
2022-12-01T22:34:53.951Z,100058.94
2022-12-01T22:37:30.113Z,100051.03
2022-12-01T22:39:57.609Z,100048.22
2022-12-01T22:42:33.539Z,100051.84
2022-12-01T22:45:19.111Z,100051.16
2022-12-01T22:47:46.104Z,100044.50
2022-12-01T22:50:27.935Z,100053.28
2022-12-01T22:53:00.085Z,100055.53
2022-12-01T22:55:26.845Z,100059.69
2022-12-01T22:57:54.592Z,100059.91
2022-12-01T23:00:23.176Z,100055.72
2022-12-01T23:02:52.365Z,100046.81
2022-12-01T23:05:26.455Z,100046.25
2022-12-01T23:07:54.811Z,100044.28
2022-12-01T23:10:24.436Z,100043.72
2022-12-01T23:12:53.565Z,100034.56
2022-12-01T23:15:31.314Z,100036.81
2022-12-01T23:18:19.417Z,100040.78
2022-12-01T23:20:54.042Z,100036.38
2022-12-01T23:23:42.509Z,100030.25
2022-12-01T23:26:09.484Z,100029.47
2022-12-01T23:28:37.639Z,100034.09
2022-12-01T23:31:05.266Z,100023.25
2022-12-01T23:33:33.692Z,100024.88
2022-12-01T23:36:06.711Z,100016.84
2022-12-01T23:38:38.610Z,100023.84
2022-12-01T23:41:26.046Z,100021.03
2022-12-01T23:44:02.062Z,100013.25
2022-12-01T23:46:29.236Z,100013.72
2022-12-01T23:49:01.354Z,100016.72
2022-12-01T23:51:30.892Z,100006.34
2022-12-01T23:54:00.763Z,100003.78
2022-12-01T23:56:31.177Z,100000.59
2022-12-01T23:59:00.747Z,100008.16
